Etusivu
METAR-TAF:

METAR-TAF

Lentoasemat :

Vlissingen, Alankomaat

Leveyspiiri: 51-27N, Pituuspiiri: 3-36E, korkeus merenpinnasta: 10 m

Tämänhetkinen sää

Tämä raportti tehtiin 38 minuuttia sitten, kello 18.25 UTC
Tuuli 17 kn pohjoisesta/koillisesta, vaihdellen pohjoisen ja koillisen välillä
Lämpötila 17°C
Kosteus 59%
Ilmanpaine 1030 hPa
Näkyvyys 10 km tai enemmän

METAR: EHFS 281825Z AUTO 02017KT 350V050 9999 NCD 17/09 Q1030

Aika: 21:03 (19:03 UTC)


TAF: puuttuu

Säähavainnot ja -ennusteet yli 4000 lentoasemalta (METAR- ja TAF-raportit).

Käytössä olevat sääasemat on merkitty karttaan keltaisilla ja punaisilla pisteillä.

Aseta hiiri pisteen päälle nähdäksesi sääaseman nimen.

Klikkaa sitten nähdäksesi säähavainnot ja -ennusteet.

Kartan vaihtaminen: klikkaa mustalla rastilla varustettuja vihreitä pisteitä, niin voit zoomata sisään; viivalla varustettua vihreää pistettä, niin voit zoomata ulos tai vihreitä nuolia, niin pääset viereisille kartoille.


METAR-TAF: